首页
METAR-TAF:

METAR-TAF

机场 :

馬丁尼克-亞米-凱薩國際機場

法兰西堡, 馬提尼克

纬度: 14-36N, 经度: 061-00W, 海拔: 5米

当前天气观测

该预报发布于23分钟前的04:00 UTC
风速2节,风向多变
温度 26°C
湿度 94%
气压 1016 hPa
能见度10公里或以上

METAR: TFFF 280400Z AUTO VRB02KT 9999 FEW016/// SCT068/// ///CB 26/25 Q1016 TEMPO 4000 SHRA

时间: 00:23 (04:23 UTC)

预报

该预报发布于2小时和7分钟前的02:16 UTC
预报有效从28日的 02点(UTC)到 28日的 24点(UTC)
风速4节,风向
能见度10公里或以上
散云层高于3000英尺
几率 30% :
短暂存在
从 28日的 02点(UTC)到 28日的 09点(UTC)
能見度: 4000
散云层高于1500英尺, 积雨云.
散云层高于2000英尺, 塔状积云.
阵雨
成为
从 28日的 10点(UTC)到 28日的 12点(UTC)
风速14节,风向

TAF: TFFF 280216Z 2802/2824 08004KT 9999 SCT030 PROB30 TEMPO 2802/2809 4000 SHRA SCT015CB SCT020TCU BECMG 2810/2812 10014KT

超过4000个机场的气象观测和天气预报(METAR&TAF报告)。

可查询的气象台以黄色和红色小点在地图上表示。

将鼠标移到小点上方,可查看气象台名称。

然后点击查看天气观测和预报。

如需切换地图:点击带黑十字的绿色按钮放大地图;点击带横线的绿色按钮缩小地图;或者点击绿色箭头查看邻近地区的地图。


METAR-TAF: